sensor_id;sensor_type;location;lat;lon;timestamp;P1;durP1;ratioP1;P2;durP2;ratioP2
25639;SDS011;13497;48.322;16.204;2023-12-04T00:00:46;9.65;;;8.75;;
25639;SDS011;13497;48.322;16.204;2023-12-04T00:03:12;9.10;;;7.38;;
25639;SDS011;13497;48.322;16.204;2023-12-04T00:05:37;8.25;;;7.45;;
25639;SDS011;13497;48.322;16.204;2023-12-04T00:08:03;8.98;;;8.10;;
25639;SDS011;13497;48.322;16.204;2023-12-04T00:10:29;16.42;;;14.77;;
25639;SDS011;13497;48.322;16.204;2023-12-04T00:12:55;28.15;;;25.15;;
25639;SDS011;13497;48.322;16.204;2023-12-04T00:15:20;44.33;;;29.95;;
25639;SDS011;13497;48.322;16.204;2023-12-04T00:17:46;11.82;;;10.00;;
25639;SDS011;13497;48.322;16.204;2023-12-04T00:20:12;14.65;;;13.25;;
25639;SDS011;13497;48.322;16.204;2023-12-04T00:22:38;11.88;;;9.23;;
25639;SDS011;13497;48.322;16.204;2023-12-04T00:25:04;12.40;;;11.30;;
25639;SDS011;13497;48.322;16.204;2023-12-04T00:27:32;12.18;;;11.13;;
25639;SDS011;13497;48.322;16.204;2023-12-04T00:29:57;13.43;;;12.48;;
25639;SDS011;13497;48.322;16.204;2023-12-04T00:32:23;13.75;;;12.57;;
25639;SDS011;13497;48.322;16.204;2023-12-04T00:34:49;9.65;;;8.63;;
25639;SDS011;13497;48.322;16.204;2023-12-04T00:37:15;10.60;;;9.70;;
25639;SDS011;13497;48.322;16.204;2023-12-04T00:39:41;12.68;;;11.73;;
25639;SDS011;13497;48.322;16.204;2023-12-04T00:42:06;9.40;;;8.60;;
25639;SDS011;13497;48.322;16.204;2023-12-04T00:44:32;11.38;;;10.25;;
25639;SDS011;13497;48.322;16.204;2023-12-04T00:46:57;11.73;;;10.82;;
25639;SDS011;13497;48.322;16.204;2023-12-04T00:49:23;17.65;;;16.45;;
25639;SDS011;13497;48.322;16.204;2023-12-04T00:51:49;18.45;;;17.35;;
25639;SDS011;13497;48.322;16.204;2023-12-04T00:54:15;10.18;;;8.02;;
25639;SDS011;13497;48.322;16.204;2023-12-04T00:56:40;8.93;;;8.15;;
25639;SDS011;13497;48.322;16.204;2023-12-04T00:59:09;9.15;;;8.27;;
25639;SDS011;13497;48.322;16.204;2023-12-04T01:01:35;7.68;;;6.97;;
25639;SDS011;13497;48.322;16.204;2023-12-04T01:04:02;9.77;;;8.95;;
25639;SDS011;13497;48.322;16.204;2023-12-04T01:06:28;7.50;;;6.78;;
25639;SDS011;13497;48.322;16.204;2023-12-04T01:08:54;10.85;;;10.05;;
25639;SDS011;13497;48.322;16.204;2023-12-04T01:11:20;8.70;;;7.95;;
25639;SDS011;13497;48.322;16.204;2023-12-04T01:13:47;9.38;;;8.48;;
25639;SDS011;13497;48.322;16.204;2023-12-04T01:16:13;9.45;;;8.75;;
25639;SDS011;13497;48.322;16.204;2023-12-04T01:18:40;8.48;;;7.75;;
25639;SDS011;13497;48.322;16.204;2023-12-04T01:21:07;9.32;;;8.50;;
25639;SDS011;13497;48.322;16.204;2023-12-04T01:26:00;9.52;;;8.73;;
25639;SDS011;13497;48.322;16.204;2023-12-04T01:28:26;7.68;;;7.05;;
25639;SDS011;13497;48.322;16.204;2023-12-04T01:30:51;9.40;;;8.57;;
25639;SDS011;13497;48.322;16.204;2023-12-04T01:33:17;7.47;;;6.78;;
25639;SDS011;13497;48.322;16.204;2023-12-04T01:35:42;8.02;;;7.40;;
25639;SDS011;13497;48.322;16.204;2023-12-04T01:38:08;8.30;;;7.50;;
25639;SDS011;13497;48.322;16.204;2023-12-04T01:40:34;9.73;;;9.00;;
25639;SDS011;13497;48.322;16.204;2023-12-04T01:42:59;7.82;;;7.22;;
25639;SDS011;13497;48.322;16.204;2023-12-04T01:45:25;10.00;;;9.30;;
25639;SDS011;13497;48.322;16.204;2023-12-04T01:47:50;7.75;;;7.15;;
25639;SDS011;13497;48.322;16.204;2023-12-04T01:50:16;7.93;;;7.18;;
25639;SDS011;13497;48.322;16.204;2023-12-04T01:52:42;8.02;;;7.38;;
25639;SDS011;13497;48.322;16.204;2023-12-04T01:55:08;9.98;;;9.25;;
25639;SDS011;13497;48.322;16.204;2023-12-04T01:57:35;8.80;;;8.18;;
25639;SDS011;13497;48.322;16.204;2023-12-04T02:00:01;7.85;;;7.22;;
25639;SDS011;13497;48.322;16.204;2023-12-04T02:02:27;8.07;;;7.32;;
25639;SDS011;13497;48.322;16.204;2023-12-04T02:04:54;8.05;;;7.45;;
25639;SDS011;13497;48.322;16.204;2023-12-04T02:07:22;7.78;;;7.18;;
25639;SDS011;13497;48.322;16.204;2023-12-04T02:09:49;8.93;;;8.27;;
25639;SDS011;13497;48.322;16.204;2023-12-04T02:12:14;6.47;;;5.97;;
25639;SDS011;13497;48.322;16.204;2023-12-04T02:14:41;19.60;;;18.50;;
25639;SDS011;13497;48.322;16.204;2023-12-04T02:17:06;9.90;;;9.15;;
25639;SDS011;13497;48.322;16.204;2023-12-04T02:19:34;6.70;;;6.15;;
25639;SDS011;13497;48.322;16.204;2023-12-04T02:21:59;8.18;;;7.57;;
25639;SDS011;13497;48.322;16.204;2023-12-04T02:24:25;9.80;;;9.10;;
25639;SDS011;13497;48.322;16.204;2023-12-04T02:30:13;6.47;;;5.97;;
25639;SDS011;13497;48.322;16.204;2023-12-04T02:32:44;6.20;;;5.60;;
25639;SDS011;13497;48.322;16.204;2023-12-04T02:35:12;20.42;;;19.40;;
25639;SDS011;13497;48.322;16.204;2023-12-04T02:37:41;9.05;;;8.50;;
25639;SDS011;13497;48.322;16.204;2023-12-04T02:40:07;10.20;;;9.50;;
25639;SDS011;13497;48.322;16.204;2023-12-04T02:42:34;9.10;;;8.50;;
25639;SDS011;13497;48.322;16.204;2023-12-04T02:44:59;9.90;;;9.05;;
25639;SDS011;13497;48.322;16.204;2023-12-04T02:47:25;8.05;;;7.43;;
25639;SDS011;13497;48.322;16.204;2023-12-04T02:49:51;20.20;;;19.05;;
25639;SDS011;13497;48.322;16.204;2023-12-04T02:52:16;17.98;;;16.95;;
25639;SDS011;13497;48.322;16.204;2023-12-04T02:54:42;8.70;;;8.00;;
25639;SDS011;13497;48.322;16.204;2023-12-04T02:57:08;9.38;;;8.68;;
25639;SDS011;13497;48.322;16.204;2023-12-04T02:59:33;9.80;;;9.10;;
25639;SDS011;13497;48.322;16.204;2023-12-04T03:01:59;7.45;;;6.85;;
25639;SDS011;13497;48.322;16.204;2023-12-04T03:04:26;7.75;;;7.25;;
25639;SDS011;13497;48.322;16.204;2023-12-04T03:06:53;6.40;;;5.90;;
25639;SDS011;13497;48.322;16.204;2023-12-04T03:09:18;15.57;;;14.70;;
25639;SDS011;13497;48.322;16.204;2023-12-04T03:11:44;15.07;;;14.20;;
25639;SDS011;13497;48.322;16.204;2023-12-04T03:14:10;7.10;;;6.55;;
25639;SDS011;13497;48.322;16.204;2023-12-04T03:16:35;9.20;;;8.60;;
25639;SDS011;13497;48.322;16.204;2023-12-04T03:19:01;7.53;;;7.00;;
25639;SDS011;13497;48.322;16.204;2023-12-04T03:21:26;5.65;;;5.15;;
25639;SDS011;13497;48.322;16.204;2023-12-04T03:23:53;8.73;;;8.10;;
25639;SDS011;13497;48.322;16.204;2023-12-04T03:26:19;8.75;;;8.05;;
25639;SDS011;13497;48.322;16.204;2023-12-04T03:28:45;8.32;;;7.63;;
25639;SDS011;13497;48.322;16.204;2023-12-04T03:31:11;8.90;;;8.32;;
25639;SDS011;13497;48.322;16.204;2023-12-04T03:33:36;6.72;;;6.10;;
25639;SDS011;13497;48.322;16.204;2023-12-04T03:36:02;9.60;;;9.00;;
25639;SDS011;13497;48.322;16.204;2023-12-04T03:38:28;6.80;;;6.20;;
25639;SDS011;13497;48.322;16.204;2023-12-04T03:40:54;8.63;;;8.02;;
25639;SDS011;13497;48.322;16.204;2023-12-04T03:43:19;17.95;;;16.98;;
25639;SDS011;13497;48.322;16.204;2023-12-04T03:45:45;9.02;;;8.40;;
25639;SDS011;13497;48.322;16.204;2023-12-04T03:48:10;6.25;;;5.72;;
25639;SDS011;13497;48.322;16.204;2023-12-04T03:50:36;6.55;;;5.95;;
25639;SDS011;13497;48.322;16.204;2023-12-04T03:53:02;7.68;;;7.07;;
25639;SDS011;13497;48.322;16.204;2023-12-04T03:55:28;9.38;;;8.77;;
25639;SDS011;13497;48.322;16.204;2023-12-04T03:57:54;7.88;;;7.20;;
25639;SDS011;13497;48.322;16.204;2023-12-04T04:00:21;6.80;;;6.18;;
25639;SDS011;13497;48.322;16.204;2023-12-04T04:02:48;7.78;;;7.22;;
25639;SDS011;13497;48.322;16.204;2023-12-04T04:05:14;7.95;;;7.38;;
25639;SDS011;13497;48.322;16.204;2023-12-04T04:07:39;18.60;;;17.55;;
25639;SDS011;13497;48.322;16.204;2023-12-04T04:10:05;8.27;;;7.55;;
25639;SDS011;13497;48.322;16.204;2023-12-04T04:12:32;8.23;;;7.63;;
25639;SDS011;13497;48.322;16.204;2023-12-04T04:14:58;7.13;;;6.55;;
25639;SDS011;13497;48.322;16.204;2023-12-04T04:17:24;20.02;;;18.98;;
25639;SDS011;13497;48.322;16.204;2023-12-04T04:19:53;21.20;;;20.15;;
25639;SDS011;13497;48.322;16.204;2023-12-04T04:22:21;9.50;;;8.80;;
25639;SDS011;13497;48.322;16.204;2023-12-04T04:24:48;7.68;;;7.07;;
25639;SDS011;13497;48.322;16.204;2023-12-04T04:27:14;10.90;;;10.10;;
25639;SDS011;13497;48.322;16.204;2023-12-04T04:29:40;7.93;;;6.93;;
25639;SDS011;13497;48.322;16.204;2023-12-04T04:32:06;9.35;;;8.57;;
25639;SDS011;13497;48.322;16.204;2023-12-04T04:34:32;9.55;;;8.85;;
25639;SDS011;13497;48.322;16.204;2023-12-04T04:36:58;9.70;;;9.02;;
25639;SDS011;13497;48.322;16.204;2023-12-04T04:39:23;7.43;;;6.80;;
25639;SDS011;13497;48.322;16.204;2023-12-04T04:41:49;7.85;;;7.25;;
25639;SDS011;13497;48.322;16.204;2023-12-04T04:44:15;12.15;;;11.25;;
25639;SDS011;13497;48.322;16.204;2023-12-04T04:46:40;9.07;;;8.07;;
25639;SDS011;13497;48.322;16.204;2023-12-04T04:49:06;11.07;;;10.15;;
25639;SDS011;13497;48.322;16.204;2023-12-04T04:51:32;20.92;;;19.73;;
25639;SDS011;13497;48.322;16.204;2023-12-04T04:53:59;11.32;;;10.23;;
25639;SDS011;13497;48.322;16.204;2023-12-04T04:56:25;8.02;;;7.30;;
25639;SDS011;13497;48.322;16.204;2023-12-04T04:58:51;21.13;;;19.63;;
25639;SDS011;13497;48.322;16.204;2023-12-04T05:01:16;13.43;;;12.25;;
25639;SDS011;13497;48.322;16.204;2023-12-04T05:03:42;14.13;;;10.20;;
25639;SDS011;13497;48.322;16.204;2023-12-04T05:06:08;12.60;;;10.45;;
25639;SDS011;13497;48.322;16.204;2023-12-04T05:08:33;13.30;;;11.95;;
25639;SDS011;13497;48.322;16.204;2023-12-04T05:10:59;12.50;;;11.38;;
25639;SDS011;13497;48.322;16.204;2023-12-04T05:13:25;12.00;;;10.80;;
25639;SDS011;13497;48.322;16.204;2023-12-04T05:15:51;10.10;;;8.98;;
25639;SDS011;13497;48.322;16.204;2023-12-04T05:18:16;11.13;;;10.23;;
25639;SDS011;13497;48.322;16.204;2023-12-04T05:20:42;18.75;;;17.55;;
25639;SDS011;13497;48.322;16.204;2023-12-04T05:23:07;8.40;;;6.95;;
25639;SDS011;13497;48.322;16.204;2023-12-04T05:25:33;13.40;;;12.30;;
25639;SDS011;13497;48.322;16.204;2023-12-04T05:27:59;13.23;;;12.23;;
25639;SDS011;13497;48.322;16.204;2023-12-04T05:30:24;10.85;;;9.80;;
25639;SDS011;13497;48.322;16.204;2023-12-04T05:32:50;12.05;;;10.88;;
25639;SDS011;13497;48.322;16.204;2023-12-04T05:35:16;10.50;;;9.13;;
25639;SDS011;13497;48.322;16.204;2023-12-04T05:37:42;12.52;;;9.85;;
25639;SDS011;13497;48.322;16.204;2023-12-04T05:40:08;23.25;;;21.70;;
25639;SDS011;13497;48.322;16.204;2023-12-04T05:42:35;12.93;;;11.68;;
25639;SDS011;13497;48.322;16.204;2023-12-04T05:45:01;8.88;;;8.07;;
25639;SDS011;13497;48.322;16.204;2023-12-04T05:47:27;15.65;;;14.52;;
25639;SDS011;13497;48.322;16.204;2023-12-04T05:49:53;17.92;;;16.42;;
25639;SDS011;13497;48.322;16.204;2023-12-04T05:52:19;22.30;;;20.83;;
25639;SDS011;13497;48.322;16.204;2023-12-04T05:54:44;10.75;;;9.70;;
25639;SDS011;13497;48.322;16.204;2023-12-04T05:57:10;12.20;;;11.10;;
25639;SDS011;13497;48.322;16.204;2023-12-04T05:59:36;11.27;;;10.25;;
25639;SDS011;13497;48.322;16.204;2023-12-04T06:02:02;13.05;;;11.85;;
25639;SDS011;13497;48.322;16.204;2023-12-04T06:04:28;12.40;;;11.32;;
25639;SDS011;13497;48.322;16.204;2023-12-04T06:06:53;17.65;;;15.77;;
25639;SDS011;13497;48.322;16.204;2023-12-04T06:09:19;21.45;;;19.70;;
25639;SDS011;13497;48.322;16.204;2023-12-04T06:11:44;25.27;;;23.30;;
25639;SDS011;13497;48.322;16.204;2023-12-04T06:14:10;15.82;;;12.82;;
25639;SDS011;13497;48.322;16.204;2023-12-04T06:16:36;21.77;;;17.58;;
25639;SDS011;13497;48.322;16.204;2023-12-04T06:19:02;17.17;;;15.25;;
25639;SDS011;13497;48.322;16.204;2023-12-04T06:21:29;25.42;;;22.65;;
25639;SDS011;13497;48.322;16.204;2023-12-04T06:23:55;21.65;;;19.48;;
25639;SDS011;13497;48.322;16.204;2023-12-04T06:26:22;15.10;;;13.05;;
25639;SDS011;13497;48.322;16.204;2023-12-04T06:28:48;15.07;;;13.93;;
25639;SDS011;13497;48.322;16.204;2023-12-04T06:31:14;12.20;;;11.00;;
25639;SDS011;13497;48.322;16.204;2023-12-04T06:33:40;13.23;;;12.15;;
25639;SDS011;13497;48.322;16.204;2023-12-04T06:36:06;10.77;;;9.75;;
25639;SDS011;13497;48.322;16.204;2023-12-04T06:38:33;13.80;;;12.45;;
25639;SDS011;13497;48.322;16.204;2023-12-04T06:41:04;16.17;;;14.77;;
25639;SDS011;13497;48.322;16.204;2023-12-04T06:43:30;11.23;;;10.10;;
25639;SDS011;13497;48.322;16.204;2023-12-04T06:45:58;13.20;;;11.80;;
25639;SDS011;13497;48.322;16.204;2023-12-04T06:48:24;15.73;;;14.30;;
25639;SDS011;13497;48.322;16.204;2023-12-04T06:50:50;14.65;;;13.15;;
25639;SDS011;13497;48.322;16.204;2023-12-04T06:53:16;13.63;;;12.38;;
25639;SDS011;13497;48.322;16.204;2023-12-04T06:55:41;20.38;;;14.93;;
25639;SDS011;13497;48.322;16.204;2023-12-04T06:58:08;12.13;;;10.70;;
25639;SDS011;13497;48.322;16.204;2023-12-04T07:00:34;15.43;;;13.90;;
25639;SDS011;13497;48.322;16.204;2023-12-04T07:02:59;14.43;;;13.00;;
25639;SDS011;13497;48.322;16.204;2023-12-04T07:05:25;17.10;;;12.93;;
25639;SDS011;13497;48.322;16.204;2023-12-04T07:07:51;16.52;;;13.85;;
25639;SDS011;13497;48.322;16.204;2023-12-04T07:10:16;16.27;;;14.68;;
25639;SDS011;13497;48.322;16.204;2023-12-04T07:12:42;13.70;;;12.30;;
25639;SDS011;13497;48.322;16.204;2023-12-04T07:15:09;23.52;;;21.88;;
25639;SDS011;13497;48.322;16.204;2023-12-04T07:17:36;14.02;;;12.75;;
25639;SDS011;13497;48.322;16.204;2023-12-04T07:20:02;16.65;;;15.05;;
25639;SDS011;13497;48.322;16.204;2023-12-04T07:22:31;16.33;;;14.45;;
25639;SDS011;13497;48.322;16.204;2023-12-04T07:24:58;12.25;;;11.07;;
25639;SDS011;13497;48.322;16.204;2023-12-04T07:27:23;12.18;;;10.63;;
25639;SDS011;13497;48.322;16.204;2023-12-04T07:29:49;15.27;;;13.98;;
25639;SDS011;13497;48.322;16.204;2023-12-04T07:32:15;17.00;;;15.43;;
25639;SDS011;13497;48.322;16.204;2023-12-04T07:34:41;15.68;;;14.05;;
25639;SDS011;13497;48.322;16.204;2023-12-04T07:37:06;20.45;;;18.65;;
25639;SDS011;13497;48.322;16.204;2023-12-04T07:39:32;18.80;;;17.00;;
25639;SDS011;13497;48.322;16.204;2023-12-04T07:41:58;34.20;;;27.23;;
25639;SDS011;13497;48.322;16.204;2023-12-04T07:44:23;40.20;;;28.65;;
25639;SDS011;13497;48.322;16.204;2023-12-04T07:46:49;38.42;;;26.35;;
25639;SDS011;13497;48.322;16.204;2023-12-04T07:49:15;35.05;;;25.45;;
25639;SDS011;13497;48.322;16.204;2023-12-04T07:51:41;22.75;;;20.40;;
25639;SDS011;13497;48.322;16.204;2023-12-04T07:54:07;21.73;;;19.38;;
25639;SDS011;13497;48.322;16.204;2023-12-04T07:56:32;24.27;;;21.88;;
25639;SDS011;13497;48.322;16.204;2023-12-04T07:58:58;21.10;;;17.33;;
25639;SDS011;13497;48.322;16.204;2023-12-04T08:01:24;18.98;;;16.90;;
25639;SDS011;13497;48.322;16.204;2023-12-04T08:03:49;13.70;;;10.45;;
25639;SDS011;13497;48.322;16.204;2023-12-04T08:06:15;21.00;;;18.88;;
25639;SDS011;13497;48.322;16.204;2023-12-04T08:08:43;13.55;;;12.18;;
25639;SDS011;13497;48.322;16.204;2023-12-04T08:11:10;16.52;;;14.90;;
25639;SDS011;13497;48.322;16.204;2023-12-04T08:13:38;28.50;;;26.35;;
25639;SDS011;13497;48.322;16.204;2023-12-04T08:16:04;20.15;;;18.05;;
25639;SDS011;13497;48.322;16.204;2023-12-04T08:18:30;25.60;;;23.75;;
25639;SDS011;13497;48.322;16.204;2023-12-04T08:20:55;14.43;;;13.10;;
25639;SDS011;13497;48.322;16.204;2023-12-04T08:23:21;16.48;;;14.85;;
25639;SDS011;13497;48.322;16.204;2023-12-04T08:25:47;15.68;;;14.27;;
25639;SDS011;13497;48.322;16.204;2023-12-04T08:28:13;24.48;;;22.58;;
25639;SDS011;13497;48.322;16.204;2023-12-04T08:30:38;9.65;;;8.75;;
25639;SDS011;13497;48.322;16.204;2023-12-04T08:33:04;12.05;;;11.00;;
25639;SDS011;13497;48.322;16.204;2023-12-04T08:35:30;11.32;;;10.32;;
25639;SDS011;13497;48.322;16.204;2023-12-04T08:37:55;9.52;;;8.52;;
25639;SDS011;13497;48.322;16.204;2023-12-04T08:40:21;11.32;;;10.23;;
25639;SDS011;13497;48.322;16.204;2023-12-04T08:42:47;11.32;;;10.18;;
25639;SDS011;13497;48.322;16.204;2023-12-04T08:45:12;11.00;;;10.05;;
25639;SDS011;13497;48.322;16.204;2023-12-04T08:47:38;13.48;;;12.38;;
25639;SDS011;13497;48.322;16.204;2023-12-04T08:50:04;22.30;;;20.73;;
25639;SDS011;13497;48.322;16.204;2023-12-04T08:52:30;12.93;;;11.65;;
25639;SDS011;13497;48.322;16.204;2023-12-04T08:54:56;18.25;;;16.77;;
25639;SDS011;13497;48.322;16.204;2023-12-04T08:57:22;15.65;;;14.25;;
25639;SDS011;13497;48.322;16.204;2023-12-04T08:59:48;10.55;;;9.50;;
25639;SDS011;13497;48.322;16.204;2023-12-04T09:02:14;15.60;;;14.25;;
25639;SDS011;13497;48.322;16.204;2023-12-04T09:04:39;13.60;;;12.30;;
25639;SDS011;13497;48.322;16.204;2023-12-04T09:07:05;10.13;;;9.25;;
25639;SDS011;13497;48.322;16.204;2023-12-04T09:09:31;17.25;;;15.90;;
25639;SDS011;13497;48.322;16.204;2023-12-04T09:11:57;13.32;;;10.98;;
25639;SDS011;13497;48.322;16.204;2023-12-04T09:14:23;10.20;;;9.18;;
25639;SDS011;13497;48.322;16.204;2023-12-04T09:16:48;17.13;;;15.68;;
25639;SDS011;13497;48.322;16.204;2023-12-04T09:19:14;13.57;;;12.43;;
25639;SDS011;13497;48.322;16.204;2023-12-04T09:21:40;14.18;;;12.90;;
25639;SDS011;13497;48.322;16.204;2023-12-04T09:24:06;13.02;;;11.32;;
25639;SDS011;13497;48.322;16.204;2023-12-04T09:26:31;11.48;;;10.43;;
25639;SDS011;13497;48.322;16.204;2023-12-04T09:28:57;13.30;;;11.95;;
25639;SDS011;13497;48.322;16.204;2023-12-04T09:31:22;13.30;;;12.15;;
25639;SDS011;13497;48.322;16.204;2023-12-04T09:33:48;13.77;;;12.68;;
25639;SDS011;13497;48.322;16.204;2023-12-04T09:36:14;11.70;;;10.68;;
25639;SDS011;13497;48.322;16.204;2023-12-04T09:38:39;12.90;;;11.80;;
25639;SDS011;13497;48.322;16.204;2023-12-04T09:41:05;10.77;;;9.88;;
25639;SDS011;13497;48.322;16.204;2023-12-04T09:43:34;14.93;;;12.30;;
25639;SDS011;13497;48.322;16.204;2023-12-04T09:46:00;18.38;;;16.85;;
25639;SDS011;13497;48.322;16.204;2023-12-04T09:48:26;15.25;;;13.93;;
25639;SDS011;13497;48.322;16.204;2023-12-04T09:50:54;12.18;;;11.07;;
25639;SDS011;13497;48.322;16.204;2023-12-04T09:53:20;20.67;;;19.08;;
25639;SDS011;13497;48.322;16.204;2023-12-04T09:58:14;14.25;;;12.77;;
25639;SDS011;13497;48.322;16.204;2023-12-04T10:00:43;13.88;;;12.55;;
25639;SDS011;13497;48.322;16.204;2023-12-04T10:03:10;13.45;;;12.02;;
25639;SDS011;13497;48.322;16.204;2023-12-04T10:05:37;11.88;;;10.75;;
25639;SDS011;13497;48.322;16.204;2023-12-04T10:08:03;11.00;;;9.85;;
25639;SDS011;13497;48.322;16.204;2023-12-04T10:10:29;12.80;;;11.60;;
25639;SDS011;13497;48.322;16.204;2023-12-04T10:12:55;14.73;;;13.30;;
25639;SDS011;13497;48.322;16.204;2023-12-04T10:15:21;12.38;;;11.23;;
25639;SDS011;13497;48.322;16.204;2023-12-04T10:17:46;14.75;;;13.55;;
25639;SDS011;13497;48.322;16.204;2023-12-04T10:20:12;11.65;;;10.45;;
25639;SDS011;13497;48.322;16.204;2023-12-04T10:23:01;10.82;;;9.70;;
25639;SDS011;13497;48.322;16.204;2023-12-04T10:25:27;13.75;;;12.40;;
25639;SDS011;13497;48.322;16.204;2023-12-04T10:27:55;14.48;;;13.30;;
25639;SDS011;13497;48.322;16.204;2023-12-04T10:30:35;14.20;;;12.90;;
25639;SDS011;13497;48.322;16.204;2023-12-04T10:33:02;12.10;;;10.50;;
25639;SDS011;13497;48.322;16.204;2023-12-04T10:35:30;12.65;;;11.23;;
25639;SDS011;13497;48.322;16.204;2023-12-04T10:38:02;13.68;;;11.23;;
25639;SDS011;13497;48.322;16.204;2023-12-04T10:40:29;10.90;;;9.98;;
25639;SDS011;13497;48.322;16.204;2023-12-04T10:43:11;15.18;;;13.77;;
25639;SDS011;13497;48.322;16.204;2023-12-04T10:45:45;13.00;;;11.70;;
25639;SDS011;13497;48.322;16.204;2023-12-04T10:48:12;10.95;;;10.00;;
25639;SDS011;13497;48.322;16.204;2023-12-04T10:50:41;13.68;;;12.48;;
25639;SDS011;13497;48.322;16.204;2023-12-04T10:53:09;25.70;;;24.08;;
25639;SDS011;13497;48.322;16.204;2023-12-04T10:55:38;12.60;;;11.48;;
25639;SDS011;13497;48.322;16.204;2023-12-04T10:58:09;11.55;;;10.35;;
25639;SDS011;13497;48.322;16.204;2023-12-04T11:00:46;10.18;;;7.90;;
25639;SDS011;13497;48.322;16.204;2023-12-04T11:03:28;13.07;;;12.02;;
25639;SDS011;13497;48.322;16.204;2023-12-04T11:06:00;11.20;;;10.25;;
25639;SDS011;13497;48.322;16.204;2023-12-04T11:08:28;10.90;;;9.95;;
25639;SDS011;13497;48.322;16.204;2023-12-04T11:11:04;10.50;;;9.55;;
25639;SDS011;13497;48.322;16.204;2023-12-04T11:13:34;10.68;;;9.73;;
25639;SDS011;13497;48.322;16.204;2023-12-04T11:16:06;12.32;;;11.18;;
25639;SDS011;13497;48.322;16.204;2023-12-04T11:18:36;12.63;;;11.50;;
25639;SDS011;13497;48.322;16.204;2023-12-04T11:21:07;12.05;;;10.82;;
25639;SDS011;13497;48.322;16.204;2023-12-04T11:23:34;9.93;;;8.85;;
25639;SDS011;13497;48.322;16.204;2023-12-04T11:26:00;11.73;;;10.73;;
25639;SDS011;13497;48.322;16.204;2023-12-04T11:28:28;10.98;;;10.02;;
25639;SDS011;13497;48.322;16.204;2023-12-04T11:30:57;9.55;;;8.63;;
25639;SDS011;13497;48.322;16.204;2023-12-04T11:33:23;10.82;;;9.82;;
25639;SDS011;13497;48.322;16.204;2023-12-04T11:35:49;9.63;;;8.27;;
25639;SDS011;13497;48.322;16.204;2023-12-04T11:38:19;10.35;;;9.30;;
25639;SDS011;13497;48.322;16.204;2023-12-04T11:40:47;11.07;;;9.98;;
25639;SDS011;13497;48.322;16.204;2023-12-04T11:43:25;19.88;;;18.60;;
25639;SDS011;13497;48.322;16.204;2023-12-04T11:45:53;9.48;;;8.57;;
25639;SDS011;13497;48.322;16.204;2023-12-04T11:48:31;9.38;;;8.55;;
25639;SDS011;13497;48.322;16.204;2023-12-04T11:50:57;10.68;;;9.73;;
25639;SDS011;13497;48.322;16.204;2023-12-04T11:53:24;11.27;;;8.23;;
25639;SDS011;13497;48.322;16.204;2023-12-04T11:55:50;8.60;;;7.80;;
25639;SDS011;13497;48.322;16.204;2023-12-04T11:58:20;8.07;;;7.38;;
25639;SDS011;13497;48.322;16.204;2023-12-04T12:00:46;16.30;;;15.27;;
25639;SDS011;13497;48.322;16.204;2023-12-04T12:03:13;9.00;;;8.20;;
25639;SDS011;13497;48.322;16.204;2023-12-04T12:05:40;8.23;;;7.45;;
25639;SDS011;13497;48.322;16.204;2023-12-04T12:08:06;8.00;;;7.30;;
25639;SDS011;13497;48.322;16.204;2023-12-04T12:10:33;6.43;;;5.60;;
25639;SDS011;13497;48.322;16.204;2023-12-04T12:12:59;7.03;;;6.20;;
25639;SDS011;13497;48.322;16.204;2023-12-04T12:15:25;6.65;;;6.05;;
25639;SDS011;13497;48.322;16.204;2023-12-04T12:17:51;6.57;;;5.95;;
25639;SDS011;13497;48.322;16.204;2023-12-04T12:20:17;5.97;;;5.47;;
25639;SDS011;13497;48.322;16.204;2023-12-04T12:22:43;5.63;;;5.10;;
25639;SDS011;13497;48.322;16.204;2023-12-04T12:25:09;7.78;;;7.07;;
25639;SDS011;13497;48.322;16.204;2023-12-04T12:27:36;5.88;;;5.18;;
25639;SDS011;13497;48.322;16.204;2023-12-04T12:30:02;5.70;;;4.60;;
25639;SDS011;13497;48.322;16.204;2023-12-04T12:32:30;5.03;;;4.60;;
25639;SDS011;13497;48.322;16.204;2023-12-04T12:37:22;5.40;;;4.35;;
25639;SDS011;13497;48.322;16.204;2023-12-04T12:39:48;4.50;;;4.18;;
25639;SDS011;13497;48.322;16.204;2023-12-04T12:42:29;5.03;;;4.53;;
25639;SDS011;13497;48.322;16.204;2023-12-04T12:44:59;5.15;;;4.72;;
25639;SDS011;13497;48.322;16.204;2023-12-04T12:47:26;4.65;;;4.22;;
25639;SDS011;13497;48.322;16.204;2023-12-04T12:49:52;6.95;;;6.35;;
25639;SDS011;13497;48.322;16.204;2023-12-04T12:52:17;7.47;;;6.88;;
25639;SDS011;13497;48.322;16.204;2023-12-04T12:54:44;5.25;;;4.75;;
25639;SDS011;13497;48.322;16.204;2023-12-04T12:57:10;4.90;;;4.40;;
25639;SDS011;13497;48.322;16.204;2023-12-04T12:59:37;5.10;;;4.60;;
25639;SDS011;13497;48.322;16.204;2023-12-04T13:04:37;8.60;;;7.45;;
25639;SDS011;13497;48.322;16.204;2023-12-04T13:11:57;5.60;;;5.10;;
25639;SDS011;13497;48.322;16.204;2023-12-04T13:14:24;5.55;;;5.05;;
25639;SDS011;13497;48.322;16.204;2023-12-04T13:16:50;6.25;;;5.72;;
25639;SDS011;13497;48.322;16.204;2023-12-04T13:19:16;10.05;;;9.15;;
25639;SDS011;13497;48.322;16.204;2023-12-04T13:21:42;7.88;;;7.18;;
25639;SDS011;13497;48.322;16.204;2023-12-04T13:24:09;5.97;;;5.22;;
25639;SDS011;13497;48.322;16.204;2023-12-04T13:29:01;6.03;;;5.50;;
25639;SDS011;13497;48.322;16.204;2023-12-04T13:31:27;8.00;;;7.32;;
25639;SDS011;13497;48.322;16.204;2023-12-04T13:33:53;6.85;;;6.07;;
25639;SDS011;13497;48.322;16.204;2023-12-04T13:36:18;5.90;;;5.13;;
25639;SDS011;13497;48.322;16.204;2023-12-04T13:38:44;5.95;;;5.45;;
25639;SDS011;13497;48.322;16.204;2023-12-04T13:41:10;9.38;;;8.63;;
25639;SDS011;13497;48.322;16.204;2023-12-04T13:43:54;5.72;;;5.13;;
25639;SDS011;13497;48.322;16.204;2023-12-04T13:46:20;7.35;;;6.75;;
25639;SDS011;13497;48.322;16.204;2023-12-04T13:48:46;12.07;;;11.07;;
25639;SDS011;13497;48.322;16.204;2023-12-04T13:51:12;6.38;;;5.78;;
25639;SDS011;13497;48.322;16.204;2023-12-04T13:53:39;7.45;;;6.80;;
25639;SDS011;13497;48.322;16.204;2023-12-04T13:56:13;16.35;;;15.45;;
25639;SDS011;13497;48.322;16.204;2023-12-04T13:58:57;6.00;;;5.50;;
25639;SDS011;13497;48.322;16.204;2023-12-04T14:01:24;5.85;;;4.78;;
25639;SDS011;13497;48.322;16.204;2023-12-04T14:03:54;7.63;;;6.93;;
25639;SDS011;13497;48.322;16.204;2023-12-04T14:06:27;13.65;;;12.75;;
25639;SDS011;13497;48.322;16.204;2023-12-04T14:08:53;5.07;;;4.57;;
25639;SDS011;13497;48.322;16.204;2023-12-04T14:11:19;7.00;;;6.50;;
25639;SDS011;13497;48.322;16.204;2023-12-04T14:13:45;7.55;;;6.82;;
25639;SDS011;13497;48.322;16.204;2023-12-04T14:16:11;6.75;;;6.22;;
25639;SDS011;13497;48.322;16.204;2023-12-04T14:18:37;5.63;;;5.13;;
25639;SDS011;13497;48.322;16.204;2023-12-04T14:21:03;6.22;;;5.70;;
25639;SDS011;13497;48.322;16.204;2023-12-04T14:23:29;6.75;;;6.13;;
25639;SDS011;13497;48.322;16.204;2023-12-04T14:25:54;7.43;;;6.75;;
25639;SDS011;13497;48.322;16.204;2023-12-04T14:28:20;5.43;;;4.60;;
25639;SDS011;13497;48.322;16.204;2023-12-04T14:30:46;7.82;;;6.57;;
25639;SDS011;13497;48.322;16.204;2023-12-04T14:33:12;6.70;;;6.07;;
25639;SDS011;13497;48.322;16.204;2023-12-04T14:35:38;5.60;;;5.03;;
25639;SDS011;13497;48.322;16.204;2023-12-04T14:38:03;5.75;;;5.18;;